Bookmark and Share
Track history (hours):
 

Tasman Sea

More information available from US FCC via Universal Licensing System and Coast Guard Vessel Documentation Center.

Last reported at 2014-Apr-24 18:33 UTC. Time now 2014-Apr-24 20:10 UTC.
Position N 40°45' W 074°01'.

Length 38 m; draft 5 m.

Type: Tug. MMSI: 366910960.

NotesDate/timePositionNaut miles runAvg speedWind from/ knotsBaromVisibWave heightAir tempDewpointWater temp
2014-Apr-24 18:33N 40°45' W 074°01'6 6.4
2014-Apr-24 17:33N 40°39' W 074°04'6 5.5
2014-Apr-24 16:33N 40°39' W 074°11'1 1.4
2014-Apr-24 15:33N 40°38' W 074°12'0 0.0
2014-Apr-24 14:32N 40°38' W 074°12'0 0.0
2014-Apr-24 13:33N 40°38' W 074°12'0 0.0
2014-Apr-24 12:30N 40°38' W 074°12'0 0.0
2014-Apr-24 11:33N 40°38' W 074°12'0 0.0
2014-Apr-24 09:33N 40°38' W 074°12'0 0.0
2014-Apr-24 08:33N 40°38' W 074°12'0 0.0
2014-Apr-24 07:33N 40°38' W 074°12'0 0.0
2014-Apr-24 03:30N 40°38' W 074°12'0 0.0
2014-Apr-24 02:27N 40°38' W 074°12'0 0.0
2014-Apr-24 01:31N 40°38' W 074°12'2 0.5
2014-Apr-23 21:33N 40°39' W 074°10'0 0.1
2014-Apr-23 17:11N 40°38' W 074°10'0 0.0
2014-Apr-23 14:18N 40°38' W 074°10'0 0.1
2014-Apr-23 13:33N 40°39' W 074°10'0 0.0
2014-Apr-23 12:34N 40°39' W 074°10'0 0.0
2014-Apr-23 11:33N 40°39' W 074°10'0 0.0
2014-Apr-23 10:34N 40°39' W 074°10'2 2.0
2014-Apr-23 09:33N 40°38' W 074°12'2 2.3
2014-Apr-23 08:33N 40°39' W 074°10'6 6.1
2014-Apr-23 07:33N 40°40' W 074°02'0 0.0
2014-Apr-23 06:33N 40°40' W 074°02'0 0.0
2014-Apr-23 05:33N 40°40' W 074°02'1 1.5
2014-Apr-23 04:33N 40°39' W 074°03'5 4.9
2014-Apr-23 03:33N 40°34' W 074°02'9 8.5
2014-Apr-23 02:31N 40°29' W 073°53'9 8.8
2014-Apr-23 01:33N 40°31' W 073°42'9 8.8
2014-Apr-23 00:32N 40°32' W 073°30'8 8.5
2014-Apr-22 23:34N 40°33' W 073°19'8 8.5
2014-Apr-22 22:34N 40°36' W 073°09'9 8.8
2014-Apr-22 21:34N 40°39' W 072°58'9 8.8
2014-Apr-22 20:33N 40°43' W 072°47'12 8.8
2014-Apr-22 19:14N 40°47' W 072°33'6 8.8
2014-Apr-22 18:34N 40°49' W 072°26'9 8.9
2014-Apr-22 17:33N 40°52' W 072°15'9 9.1
2014-Apr-22 16:34N 40°56' W 072°04'10 9.1
2014-Apr-22 15:30N 41°00' W 071°52'12 9.4
2014-Apr-22 14:12N 41°05' W 071°37'6 9.2
2014-Apr-22 13:33N 41°07' W 071°30'9 9.1
2014-Apr-22 12:34N 41°11' W 071°19'9 9.1
2014-Apr-22 11:34N 41°19' W 071°12'9 9.2
2014-Apr-22 10:34N 41°25' W 071°03'10 9.7
2014-Apr-22 09:33N 41°30' W 070°52'9 9.4
2014-Apr-22 08:34N 41°36' W 070°43'16 7.3
2014-Apr-22 06:21N 41°47' W 070°27'0 0.1
2014-Apr-22 05:21N 41°47' W 070°27'0 0.0
2014-Apr-22 03:10N 41°47' W 070°27'2 2.7
2014-Apr-22 02:33N 41°49' W 070°26'9 9.1
2014-Apr-22 01:34N 41°57' W 070°30'9 9.0
2014-Apr-22 00:34N 42°06' W 070°34'22 7.4
2014-Apr-21 21:33N 42°20' W 070°57'4 4.3
2014-Apr-21 20:33N 42°23' W 071°01'1 0.3
2014-Apr-21 18:22N 42°24' W 071°01'0 0.0
2014-Apr-21 17:32N 42°24' W 071°01'0 0.0
2014-Apr-21 16:33N 42°24' W 071°01'0 0.0
2014-Apr-21 15:24N 42°24' W 071°01'0 0.0
2014-Apr-21 14:25N 42°24' W 071°01'0 0.0
2014-Apr-21 13:25N 42°24' W 071°01'0 0.0
2014-Apr-21 12:33N 42°24' W 071°01'0 0.0
2014-Apr-21 11:32N 42°24' W 071°01'0 0.4
2014-Apr-21 10:33N 42°23' W 071°01'2 2.0
2014-Apr-21 09:34N 42°22' W 071°03'1 0.6
2014-Apr-21 08:33N 42°22' W 071°02'0 0.1
2014-Apr-21 07:33N 42°22' W 071°02'0 0.0
2014-Apr-21 06:33N 42°22' W 071°02'0 0.1
2014-Apr-21 05:33N 42°22' W 071°02'0 0.0
2014-Apr-21 04:33N 42°22' W 071°02'0 0.0
2014-Apr-21 03:33N 42°22' W 071°02'0 0.1
2014-Apr-21 02:33N 42°22' W 071°02'0 0.1
2014-Apr-21 01:33N 42°22' W 071°02'0 0.1
2014-Apr-21 00:33N 42°22' W 071°02'0 0.1
2014-Apr-20 23:33N 42°21' W 071°02'0 0.0
2014-Apr-20 22:33N 42°21' W 071°02'0 0.1
2014-Apr-20 21:33N 42°22' W 071°02'0 0.0
2014-Apr-20 20:33N 42°22' W 071°02'0 0.0
2014-Apr-20 19:33N 42°22' W 071°02'0 0.0
2014-Apr-20 18:33N 42°22' W 071°02'2 1.9
2014-Apr-20 17:33N 42°23' W 071°03'0 0.0
2014-Apr-20 16:33N 42°23' W 071°03'0 0.0
2014-Apr-20 15:33N 42°23' W 071°03'0 0.0
2014-Apr-20 14:33N 42°23' W 071°03'0 0.0
2014-Apr-20 13:33N 42°23' W 071°03'0 0.0
2014-Apr-20 12:33N 42°23' W 071°03'0 0.0
2014-Apr-20 11:33N 42°23' W 071°03'0 0.0
2014-Apr-20 10:33N 42°23' W 071°03'0 0.0
2014-Apr-20 09:33N 42°23' W 071°03'0 0.0
2014-Apr-20 08:33N 42°23' W 071°03'0 0.0
2014-Apr-20 07:33N 42°23' W 071°03'0 0.0
2014-Apr-20 06:34N 42°23' W 071°03'0 0.0
2014-Apr-20 05:33N 42°23' W 071°03'0 0.1
2014-Apr-20 04:31N 42°23' W 071°03'2 2.1
2014-Apr-20 03:33N 42°21' W 071°02'0 0.0
2014-Apr-20 02:33N 42°21' W 071°02'0 0.0
2014-Apr-20 01:33N 42°21' W 071°02'0 0.0
2014-Apr-20 00:33N 42°21' W 071°02'0 0.0
2014-Apr-19 23:33N 42°21' W 071°02'0 0.0
2014-Apr-19 22:33N 42°21' W 071°02'0 0.0
2014-Apr-19 21:33N 42°21' W 071°02'0 0.0
2014-Apr-19 20:33N 42°21' W 071°02'0 0.0
2014-Apr-19 19:33N 42°21' W 071°02'0 0.0
2014-Apr-19 18:33N 42°21' W 071°02'3 2.9
2014-Apr-19 17:34N 42°20' W 070°59'44 3.6
2014-Apr-19 05:24N 41°38' W 070°42'6 7.3
2014-Apr-19 04:33N 41°33' W 070°46'8 7.9
2014-Apr-19 03:34N 41°29' W 070°55'9 8.4
2014-Apr-19 02:30N 41°23' W 071°04'8 8.1
2014-Apr-19 01:34N 41°17' W 071°10'8 8.0
2014-Apr-19 00:34N 41°11' W 071°16'8 7.6
2014-Apr-18 23:33N 41°08' W 071°26'5 5.0
2014-Apr-18 22:34N 41°06' W 071°32'7 6.6
2014-Apr-18 21:34N 41°03' W 071°39'7 6.8
2014-Apr-18 20:34N 41°01' W 071°48'7 6.7
2014-Apr-18 19:33N 40°58' W 071°56'7 7.0
2014-Apr-18 18:33N 40°56' W 072°05'7 7.0
2014-Apr-18 17:34N 40°53' W 072°13'7 7.0
2014-Apr-18 16:34N 40°50' W 072°22'7 7.0
2014-Apr-18 15:34N 40°48' W 072°30'7 7.0
2014-Apr-18 14:34N 40°45' W 072°39'7 6.9
2014-Apr-18 13:33N 40°42' W 072°47'7 6.8
2014-Apr-18 12:34N 40°40' W 072°56'7 6.7
2014-Apr-18 11:33N 40°37' W 073°04'6 6.4
2014-Apr-18 10:33N 40°35' W 073°12'6 6.2
2014-Apr-18 09:34N 40°33' W 073°19'14 6.5
2014-Apr-18 07:27N 40°31' W 073°37'19 6.6
2014-Apr-18 04:33N 40°34' W 074°02'6 6.0
2014-Apr-18 03:33N 40°39' W 074°07'5 4.6
2014-Apr-18 02:30N 40°36' W 074°12'0 0.3
2014-Apr-18 01:33N 40°36' W 074°12'0 0.0
2014-Apr-18 00:33N 40°36' W 074°12'0 0.0
2014-Apr-17 23:33N 40°36' W 074°12'0 0.0
2014-Apr-17 22:33N 40°36' W 074°12'0 0.0
2014-Apr-17 21:33N 40°36' W 074°12'0 0.0
2014-Apr-17 20:33N 40°36' W 074°12'0 0.0
2014-Apr-17 19:33N 40°36' W 074°12'0 0.0
2014-Apr-17 18:33N 40°36' W 074°12'0 0.0
2014-Apr-17 17:32N 40°36' W 074°12'0 0.0
2014-Apr-17 16:32N 40°36' W 074°12'3 3.0
2014-Apr-17 15:34N 40°39' W 074°11'1 1.1
2014-Apr-17 14:33N 40°39' W 074°10'0 0.0
2014-Apr-17 13:33N 40°39' W 074°10'0 0.0
2014-Apr-17 12:33N 40°39' W 074°10'0 0.0
2014-Apr-17 11:33N 40°39' W 074°10'0 0.0
2014-Apr-17 10:33N 40°39' W 074°10'3 3.3
2014-Apr-17 09:33N 40°36' W 074°12'0 0.3
2014-Apr-17 08:33N 40°36' W 074°12'6 2.3
2014-Apr-17 06:06N 40°30' W 074°11'5 8.3
2014-Apr-17 05:33N 40°29' W 074°05'8 6.6
2014-Apr-17 04:23N 40°27' W 073°56'7 8.7
2014-Apr-17 03:33N 40°30' W 073°47'9 8.9
2014-Apr-17 02:31N 40°32' W 073°35'10 9.1
2014-Apr-17 01:27N 40°33' W 073°22'8 9.1
2014-Apr-17 00:33N 40°35' W 073°12'9 9.2
2014-Apr-16 23:32N 40°38' W 073°00'9 9.2
2014-Apr-16 22:33N 40°41' W 072°49'9 9.2
2014-Apr-16 21:34N 40°45' W 072°38'9 9.3
2014-Apr-16 20:34N 40°49' W 072°27'9 9.4
2014-Apr-16 19:33N 40°52' W 072°15'9 9.3
2014-Apr-16 18:34N 40°56' W 072°04'9 9.4
2014-Apr-16 17:33N 40°59' W 071°52'9 8.9
2014-Apr-16 16:34N 41°03' W 071°42'9 9.0
2014-Apr-16 15:34N 41°07' W 071°31'9 8.9
2014-Apr-16 14:33N 41°11' W 071°20'9 8.7
2014-Apr-16 13:34N 41°18' W 071°13'8 8.4
2014-Apr-16 12:34N 41°24' W 071°05'51 2.6
2014-Apr-15 16:27N 42°10' W 070°36'7 8.2
2014-Apr-15 15:33N 42°17' W 070°41'8 8.1
2014-Apr-15 14:33N 42°19' W 070°51'  

Dump ship's entire track history

sailing weather and tide predictions

Tasman Sea — WDB5559 — position and weather